Terminal Aerodrome Forecast
Issued by NWS

Home | Current Version | Previous Version | Text Only | Print | Product List | Glossary On
Versions: 1 2 3 4 5 6 7 8 9 10 11 12 13 14 15 16 17 18 19 20 21
000
FTUS45 KTFX 251742
TAFGTF
TAF
KGTF 251742Z 2518/2618 VRB05KT P6SM SCT080
     FM252100 12008KT P6SM SCT080 BKN150
     FM260300 22006KT P6SM SCT050 BKN080 PROB30 2607/2612 -SHRA
      BKN050
     FM261200 27006KT P6SM -SHRA BKN050=

USA.gov is the U.S. government's official web portal to all federal, state and local government web resources and services.